sensor_id;sensor_type;location;lat;lon;timestamp;P1;durP1;ratioP1;P2;durP2;ratioP2
5022;SDS011;2530;47.990;7.866;2022-11-03T00:01:30;4.73;;;1.93;;
5022;SDS011;2530;47.990;7.866;2022-11-03T00:04:17;3.83;;;1.75;;
5022;SDS011;2530;47.990;7.866;2022-11-03T00:06:44;2.10;;;1.73;;
5022;SDS011;2530;47.990;7.866;2022-11-03T00:09:12;2.63;;;1.83;;
5022;SDS011;2530;47.990;7.866;2022-11-03T00:11:39;3.20;;;2.10;;
5022;SDS011;2530;47.990;7.866;2022-11-03T00:14:06;4.47;;;1.95;;
5022;SDS011;2530;47.990;7.866;2022-11-03T00:16:33;3.37;;;1.80;;
5022;SDS011;2530;47.990;7.866;2022-11-03T00:18:59;5.38;;;2.30;;
5022;SDS011;2530;47.990;7.866;2022-11-03T00:21:25;3.28;;;1.70;;
5022;SDS011;2530;47.990;7.866;2022-11-03T00:23:50;3.70;;;1.50;;
5022;SDS011;2530;47.990;7.866;2022-11-03T00:26:20;3.60;;;1.67;;
5022;SDS011;2530;47.990;7.866;2022-11-03T00:28:53;2.85;;;1.80;;
5022;SDS011;2530;47.990;7.866;2022-11-03T00:31:23;4.30;;;2.10;;
5022;SDS011;2530;47.990;7.866;2022-11-03T00:33:50;2.25;;;1.90;;
5022;SDS011;2530;47.990;7.866;2022-11-03T00:36:18;4.07;;;2.20;;
5022;SDS011;2530;47.990;7.866;2022-11-03T00:38:46;3.08;;;2.15;;
5022;SDS011;2530;47.990;7.866;2022-11-03T00:41:12;4.70;;;1.77;;
5022;SDS011;2530;47.990;7.866;2022-11-03T00:43:38;3.90;;;1.88;;
5022;SDS011;2530;47.990;7.866;2022-11-03T00:46:04;3.85;;;1.60;;
5022;SDS011;2530;47.990;7.866;2022-11-03T00:48:32;4.75;;;1.65;;
5022;SDS011;2530;47.990;7.866;2022-11-03T00:53:24;5.83;;;1.83;;
5022;SDS011;2530;47.990;7.866;2022-11-03T00:55:49;3.35;;;1.70;;
5022;SDS011;2530;47.990;7.866;2022-11-03T00:58:15;4.23;;;1.90;;
5022;SDS011;2530;47.990;7.866;2022-11-03T01:00:40;4.83;;;1.70;;
5022;SDS011;2530;47.990;7.866;2022-11-03T01:03:06;2.03;;;1.70;;
5022;SDS011;2530;47.990;7.866;2022-11-03T01:05:31;2.40;;;1.63;;
5022;SDS011;2530;47.990;7.866;2022-11-03T01:08:16;2.58;;;1.65;;
5022;SDS011;2530;47.990;7.866;2022-11-03T01:10:41;4.40;;;1.60;;
5022;SDS011;2530;47.990;7.866;2022-11-03T01:13:27;4.15;;;2.17;;
5022;SDS011;2530;47.990;7.866;2022-11-03T01:15:56;3.33;;;1.70;;
5022;SDS011;2530;47.990;7.866;2022-11-03T01:18:22;4.75;;;1.60;;
5022;SDS011;2530;47.990;7.866;2022-11-03T01:20:53;2.88;;;1.60;;
5022;SDS011;2530;47.990;7.866;2022-11-03T01:23:22;2.50;;;1.60;;
5022;SDS011;2530;47.990;7.866;2022-11-03T01:25:48;2.00;;;1.80;;
5022;SDS011;2530;47.990;7.866;2022-11-03T01:28:14;2.75;;;2.28;;
5022;SDS011;2530;47.990;7.866;2022-11-03T01:30:39;4.13;;;2.47;;
5022;SDS011;2530;47.990;7.866;2022-11-03T01:33:05;3.50;;;2.07;;
5022;SDS011;2530;47.990;7.866;2022-11-03T01:35:30;3.00;;;1.70;;
5022;SDS011;2530;47.990;7.866;2022-11-03T01:37:56;3.90;;;1.70;;
5022;SDS011;2530;47.990;7.866;2022-11-03T01:40:21;4.03;;;1.60;;
5022;SDS011;2530;47.990;7.866;2022-11-03T01:42:47;4.50;;;1.67;;
5022;SDS011;2530;47.990;7.866;2022-11-03T01:45:13;3.80;;;1.90;;
5022;SDS011;2530;47.990;7.866;2022-11-03T01:47:38;5.20;;;1.70;;
5022;SDS011;2530;47.990;7.866;2022-11-03T01:50:07;2.95;;;1.80;;
5022;SDS011;2530;47.990;7.866;2022-11-03T01:52:37;3.20;;;1.73;;
5022;SDS011;2530;47.990;7.866;2022-11-03T01:55:14;3.97;;;1.70;;
5022;SDS011;2530;47.990;7.866;2022-11-03T01:57:44;2.05;;;1.67;;
5022;SDS011;2530;47.990;7.866;2022-11-03T02:00:18;2.20;;;2.00;;
5022;SDS011;2530;47.990;7.866;2022-11-03T02:02:43;3.20;;;1.50;;
5022;SDS011;2530;47.990;7.866;2022-11-03T02:05:10;2.70;;;1.55;;
5022;SDS011;2530;47.990;7.866;2022-11-03T02:07:42;2.25;;;1.65;;
5022;SDS011;2530;47.990;7.866;2022-11-03T02:10:08;3.70;;;1.90;;
5022;SDS011;2530;47.990;7.866;2022-11-03T02:12:34;2.90;;;1.58;;
5022;SDS011;2530;47.990;7.866;2022-11-03T02:15:05;3.65;;;1.50;;
5022;SDS011;2530;47.990;7.866;2022-11-03T02:17:34;3.40;;;1.65;;
5022;SDS011;2530;47.990;7.866;2022-11-03T02:22:46;3.25;;;1.77;;
5022;SDS011;2530;47.990;7.866;2022-11-03T02:28:15;1.60;;;1.50;;
5022;SDS011;2530;47.990;7.866;2022-11-03T02:30:44;2.60;;;1.90;;
5022;SDS011;2530;47.990;7.866;2022-11-03T02:36:25;3.00;;;1.80;;
5022;SDS011;2530;47.990;7.866;2022-11-03T02:41:44;2.20;;;1.60;;
5022;SDS011;2530;47.990;7.866;2022-11-03T02:44:16;3.33;;;1.50;;
5022;SDS011;2530;47.990;7.866;2022-11-03T02:46:43;2.10;;;1.87;;
5022;SDS011;2530;47.990;7.866;2022-11-03T02:49:18;3.40;;;1.77;;
5022;SDS011;2530;47.990;7.866;2022-11-03T02:51:44;2.50;;;1.60;;
5022;SDS011;2530;47.990;7.866;2022-11-03T02:54:25;4.10;;;1.70;;
5022;SDS011;2530;47.990;7.866;2022-11-03T02:57:02;2.67;;;1.65;;
5022;SDS011;2530;47.990;7.866;2022-11-03T03:00:08;3.47;;;1.90;;
5022;SDS011;2530;47.990;7.866;2022-11-03T03:02:50;3.03;;;1.80;;
5022;SDS011;2530;47.990;7.866;2022-11-03T03:05:22;3.97;;;1.77;;
5022;SDS011;2530;47.990;7.866;2022-11-03T03:07:51;5.30;;;1.65;;
5022;SDS011;2530;47.990;7.866;2022-11-03T03:10:23;2.78;;;1.83;;
5022;SDS011;2530;47.990;7.866;2022-11-03T03:12:53;5.03;;;1.90;;
5022;SDS011;2530;47.990;7.866;2022-11-03T03:15:22;2.80;;;1.50;;
5022;SDS011;2530;47.990;7.866;2022-11-03T03:17:57;2.25;;;1.80;;
5022;SDS011;2530;47.990;7.866;2022-11-03T03:20:38;2.83;;;1.70;;
5022;SDS011;2530;47.990;7.866;2022-11-03T03:26:29;4.70;;;1.80;;
5022;SDS011;2530;47.990;7.866;2022-11-03T03:28:39;4.22;;;2.10;;
5022;SDS011;2530;47.990;7.866;2022-11-03T03:31:10;4.90;;;1.70;;
5022;SDS011;2530;47.990;7.866;2022-11-03T03:33:38;2.60;;;1.60;;
5022;SDS011;2530;47.990;7.866;2022-11-03T03:36:05;5.00;;;1.90;;
5022;SDS011;2530;47.990;7.866;2022-11-03T03:38:39;2.38;;;1.60;;
5022;SDS011;2530;47.990;7.866;2022-11-03T03:41:09;3.45;;;1.80;;
5022;SDS011;2530;47.990;7.866;2022-11-03T03:43:45;2.90;;;2.00;;
5022;SDS011;2530;47.990;7.866;2022-11-03T03:46:15;2.47;;;1.75;;
5022;SDS011;2530;47.990;7.866;2022-11-03T03:48:43;4.45;;;1.92;;
5022;SDS011;2530;47.990;7.866;2022-11-03T03:51:09;3.43;;;2.10;;
5022;SDS011;2530;47.990;7.866;2022-11-03T03:53:36;3.60;;;1.70;;
5022;SDS011;2530;47.990;7.866;2022-11-03T03:56:02;2.60;;;1.73;;
5022;SDS011;2530;47.990;7.866;2022-11-03T03:58:29;2.10;;;1.40;;
5022;SDS011;2530;47.990;7.866;2022-11-03T04:00:55;4.30;;;1.73;;
5022;SDS011;2530;47.990;7.866;2022-11-03T04:03:22;2.20;;;1.60;;
5022;SDS011;2530;47.990;7.866;2022-11-03T04:05:49;4.80;;;2.03;;
5022;SDS011;2530;47.990;7.866;2022-11-03T04:08:15;2.00;;;1.67;;
5022;SDS011;2530;47.990;7.866;2022-11-03T04:10:42;5.25;;;2.05;;
5022;SDS011;2530;47.990;7.866;2022-11-03T04:13:27;3.70;;;1.60;;
5022;SDS011;2530;47.990;7.866;2022-11-03T04:16:11;3.35;;;1.70;;
5022;SDS011;2530;47.990;7.866;2022-11-03T04:18:55;2.90;;;1.90;;
5022;SDS011;2530;47.990;7.866;2022-11-03T04:21:39;4.80;;;2.30;;
5022;SDS011;2530;47.990;7.866;2022-11-03T04:24:28;3.25;;;1.80;;
5022;SDS011;2530;47.990;7.866;2022-11-03T04:26:56;2.40;;;2.00;;
5022;SDS011;2530;47.990;7.866;2022-11-03T04:29:26;2.80;;;1.83;;
5022;SDS011;2530;47.990;7.866;2022-11-03T04:31:52;5.15;;;2.20;;
5022;SDS011;2530;47.990;7.866;2022-11-03T04:34:18;3.17;;;2.07;;
5022;SDS011;2530;47.990;7.866;2022-11-03T04:36:43;2.20;;;1.80;;
5022;SDS011;2530;47.990;7.866;2022-11-03T04:39:14;3.20;;;1.83;;
5022;SDS011;2530;47.990;7.866;2022-11-03T04:41:42;3.87;;;1.87;;
5022;SDS011;2530;47.990;7.866;2022-11-03T04:44:13;3.75;;;2.00;;
5022;SDS011;2530;47.990;7.866;2022-11-03T04:46:40;4.20;;;1.70;;
5022;SDS011;2530;47.990;7.866;2022-11-03T04:49:09;2.20;;;2.00;;
5022;SDS011;2530;47.990;7.866;2022-11-03T04:51:40;4.20;;;1.70;;
5022;SDS011;2530;47.990;7.866;2022-11-03T04:54:12;3.58;;;2.17;;
5022;SDS011;2530;47.990;7.866;2022-11-03T04:56:43;2.40;;;1.67;;
5022;SDS011;2530;47.990;7.866;2022-11-03T04:59:12;4.05;;;2.30;;
5022;SDS011;2530;47.990;7.866;2022-11-03T05:01:39;1.73;;;1.60;;
5022;SDS011;2530;47.990;7.866;2022-11-03T05:04:16;2.47;;;1.70;;
5022;SDS011;2530;47.990;7.866;2022-11-03T05:06:49;3.00;;;2.00;;
5022;SDS011;2530;47.990;7.866;2022-11-03T05:09:18;3.83;;;2.03;;
5022;SDS011;2530;47.990;7.866;2022-11-03T05:11:50;3.13;;;2.15;;
5022;SDS011;2530;47.990;7.866;2022-11-03T05:14:20;4.03;;;2.20;;
5022;SDS011;2530;47.990;7.866;2022-11-03T05:16:49;3.97;;;2.10;;
5022;SDS011;2530;47.990;7.866;2022-11-03T05:19:19;4.60;;;2.10;;
5022;SDS011;2530;47.990;7.866;2022-11-03T05:21:46;3.75;;;2.00;;
5022;SDS011;2530;47.990;7.866;2022-11-03T05:24:14;3.60;;;2.00;;
5022;SDS011;2530;47.990;7.866;2022-11-03T05:26:42;3.07;;;2.43;;
5022;SDS011;2530;47.990;7.866;2022-11-03T05:29:19;4.05;;;2.42;;
5022;SDS011;2530;47.990;7.866;2022-11-03T05:31:48;3.70;;;2.45;;
5022;SDS011;2530;47.990;7.866;2022-11-03T05:34:34;2.30;;;1.77;;
5022;SDS011;2530;47.990;7.866;2022-11-03T05:39:58;4.43;;;2.50;;
5022;SDS011;2530;47.990;7.866;2022-11-03T05:42:31;3.60;;;2.73;;
5022;SDS011;2530;47.990;7.866;2022-11-03T05:45:01;4.13;;;2.22;;
5022;SDS011;2530;47.990;7.866;2022-11-03T05:47:47;4.88;;;2.63;;
5022;SDS011;2530;47.990;7.866;2022-11-03T05:50:20;5.00;;;2.60;;
5022;SDS011;2530;47.990;7.866;2022-11-03T05:52:49;3.80;;;2.00;;
5022;SDS011;2530;47.990;7.866;2022-11-03T05:55:27;2.50;;;2.30;;
5022;SDS011;2530;47.990;7.866;2022-11-03T05:57:56;3.90;;;2.50;;
5022;SDS011;2530;47.990;7.866;2022-11-03T06:00:28;5.37;;;2.10;;
5022;SDS011;2530;47.990;7.866;2022-11-03T06:03:01;4.63;;;2.63;;
5022;SDS011;2530;47.990;7.866;2022-11-03T06:05:29;6.20;;;3.40;;
5022;SDS011;2530;47.990;7.866;2022-11-03T06:07:56;3.15;;;2.50;;
5022;SDS011;2530;47.990;7.866;2022-11-03T06:10:27;4.93;;;2.40;;
5022;SDS011;2530;47.990;7.866;2022-11-03T06:12:58;4.00;;;2.72;;
5022;SDS011;2530;47.990;7.866;2022-11-03T06:15:35;5.43;;;3.30;;
5022;SDS011;2530;47.990;7.866;2022-11-03T06:18:23;4.22;;;2.85;;
5022;SDS011;2530;47.990;7.866;2022-11-03T06:20:54;4.82;;;3.10;;
5022;SDS011;2530;47.990;7.866;2022-11-03T06:23:26;4.00;;;3.00;;
5022;SDS011;2530;47.990;7.866;2022-11-03T06:25:52;3.20;;;2.50;;
5022;SDS011;2530;47.990;7.866;2022-11-03T06:28:21;2.80;;;2.10;;
5022;SDS011;2530;47.990;7.866;2022-11-03T06:30:51;3.55;;;2.60;;
5022;SDS011;2530;47.990;7.866;2022-11-03T06:33:27;4.75;;;2.40;;
5022;SDS011;2530;47.990;7.866;2022-11-03T06:36:00;5.57;;;2.80;;
5022;SDS011;2530;47.990;7.866;2022-11-03T06:38:30;3.05;;;2.70;;
5022;SDS011;2530;47.990;7.866;2022-11-03T06:40:58;8.30;;;2.80;;
5022;SDS011;2530;47.990;7.866;2022-11-03T06:43:25;4.63;;;2.60;;
5022;SDS011;2530;47.990;7.866;2022-11-03T06:46:07;2.83;;;2.53;;
5022;SDS011;2530;47.990;7.866;2022-11-03T06:48:37;4.53;;;2.80;;
5022;SDS011;2530;47.990;7.866;2022-11-03T06:51:11;4.25;;;2.58;;
5022;SDS011;2530;47.990;7.866;2022-11-03T06:53:40;3.33;;;2.45;;
5022;SDS011;2530;47.990;7.866;2022-11-03T06:56:07;5.28;;;2.95;;
5022;SDS011;2530;47.990;7.866;2022-11-03T06:58:36;2.95;;;2.42;;
5022;SDS011;2530;47.990;7.866;2022-11-03T07:01:14;5.57;;;2.95;;
5022;SDS011;2530;47.990;7.866;2022-11-03T07:03:42;4.03;;;2.80;;
5022;SDS011;2530;47.990;7.866;2022-11-03T07:08:54;3.80;;;2.30;;
5022;SDS011;2530;47.990;7.866;2022-11-03T07:11:26;4.80;;;3.00;;
5022;SDS011;2530;47.990;7.866;2022-11-03T07:13:57;3.13;;;2.50;;
5022;SDS011;2530;47.990;7.866;2022-11-03T07:16:37;2.50;;;2.30;;
5022;SDS011;2530;47.990;7.866;2022-11-03T07:19:10;3.97;;;2.60;;
5022;SDS011;2530;47.990;7.866;2022-11-03T07:21:43;3.00;;;2.70;;
5022;SDS011;2530;47.990;7.866;2022-11-03T07:24:14;5.00;;;3.00;;
5022;SDS011;2530;47.990;7.866;2022-11-03T07:26:43;2.60;;;2.40;;
5022;SDS011;2530;47.990;7.866;2022-11-03T07:29:15;4.28;;;2.70;;
5022;SDS011;2530;47.990;7.866;2022-11-03T07:31:44;3.83;;;2.60;;
5022;SDS011;2530;47.990;7.866;2022-11-03T07:34:11;4.20;;;2.80;;
5022;SDS011;2530;47.990;7.866;2022-11-03T07:36:42;5.32;;;2.80;;
5022;SDS011;2530;47.990;7.866;2022-11-03T07:39:10;4.07;;;2.90;;
5022;SDS011;2530;47.990;7.866;2022-11-03T07:41:39;3.45;;;2.60;;
5022;SDS011;2530;47.990;7.866;2022-11-03T07:44:07;4.00;;;2.90;;
5022;SDS011;2530;47.990;7.866;2022-11-03T07:46:40;4.15;;;2.47;;
5022;SDS011;2530;47.990;7.866;2022-11-03T07:49:07;3.42;;;2.70;;
5022;SDS011;2530;47.990;7.866;2022-11-03T07:51:50;3.50;;;2.80;;
5022;SDS011;2530;47.990;7.866;2022-11-03T07:54:20;3.00;;;2.30;;
5022;SDS011;2530;47.990;7.866;2022-11-03T07:56:55;3.92;;;2.55;;
5022;SDS011;2530;47.990;7.866;2022-11-03T07:59:30;2.83;;;2.40;;
5022;SDS011;2530;47.990;7.866;2022-11-03T08:01:56;2.80;;;2.50;;
5022;SDS011;2530;47.990;7.866;2022-11-03T08:04:26;3.50;;;2.58;;
5022;SDS011;2530;47.990;7.866;2022-11-03T08:06:54;4.75;;;2.85;;
5022;SDS011;2530;47.990;7.866;2022-11-03T08:09:20;3.60;;;2.50;;
5022;SDS011;2530;47.990;7.866;2022-11-03T08:11:46;4.83;;;2.93;;
5022;SDS011;2530;47.990;7.866;2022-11-03T08:14:12;6.07;;;3.03;;
5022;SDS011;2530;47.990;7.866;2022-11-03T08:16:37;5.27;;;3.40;;
5022;SDS011;2530;47.990;7.866;2022-11-03T08:19:03;4.50;;;3.20;;
5022;SDS011;2530;47.990;7.866;2022-11-03T08:21:29;3.13;;;2.83;;
5022;SDS011;2530;47.990;7.866;2022-11-03T08:23:54;4.95;;;2.95;;
5022;SDS011;2530;47.990;7.866;2022-11-03T08:26:20;4.90;;;2.72;;
5022;SDS011;2530;47.990;7.866;2022-11-03T08:28:46;3.65;;;2.70;;
5022;SDS011;2530;47.990;7.866;2022-11-03T08:31:12;4.35;;;2.92;;
5022;SDS011;2530;47.990;7.866;2022-11-03T08:33:37;4.43;;;2.55;;
5022;SDS011;2530;47.990;7.866;2022-11-03T08:36:03;4.93;;;2.53;;
5022;SDS011;2530;47.990;7.866;2022-11-03T08:38:29;3.00;;;2.70;;
5022;SDS011;2530;47.990;7.866;2022-11-03T08:40:55;2.90;;;2.60;;
5022;SDS011;2530;47.990;7.866;2022-11-03T08:43:22;4.55;;;2.30;;
5022;SDS011;2530;47.990;7.866;2022-11-03T08:45:48;2.70;;;2.10;;
5022;SDS011;2530;47.990;7.866;2022-11-03T08:48:17;3.97;;;2.83;;
5022;SDS011;2530;47.990;7.866;2022-11-03T08:50:44;4.17;;;2.53;;
5022;SDS011;2530;47.990;7.866;2022-11-03T08:53:10;3.67;;;2.30;;
5022;SDS011;2530;47.990;7.866;2022-11-03T08:55:35;3.00;;;2.20;;
5022;SDS011;2530;47.990;7.866;2022-11-03T08:58:01;2.33;;;2.13;;
5022;SDS011;2530;47.990;7.866;2022-11-03T09:00:26;4.40;;;2.70;;
5022;SDS011;2530;47.990;7.866;2022-11-03T09:02:52;4.20;;;2.40;;
5022;SDS011;2530;47.990;7.866;2022-11-03T09:05:17;2.70;;;2.20;;
5022;SDS011;2530;47.990;7.866;2022-11-03T09:07:43;4.55;;;2.30;;
5022;SDS011;2530;47.990;7.866;2022-11-03T09:10:09;3.90;;;3.00;;
5022;SDS011;2530;47.990;7.866;2022-11-03T09:12:36;3.67;;;2.22;;
5022;SDS011;2530;47.990;7.866;2022-11-03T09:15:02;2.65;;;2.25;;
5022;SDS011;2530;47.990;7.866;2022-11-03T09:17:31;3.33;;;2.30;;
5022;SDS011;2530;47.990;7.866;2022-11-03T09:19:57;2.50;;;2.30;;
5022;SDS011;2530;47.990;7.866;2022-11-03T09:22:23;3.60;;;2.30;;
5022;SDS011;2530;47.990;7.866;2022-11-03T09:24:48;5.65;;;2.70;;
5022;SDS011;2530;47.990;7.866;2022-11-03T09:27:14;3.90;;;2.40;;
5022;SDS011;2530;47.990;7.866;2022-11-03T09:29:39;2.83;;;2.57;;
5022;SDS011;2530;47.990;7.866;2022-11-03T09:32:05;2.67;;;2.17;;
5022;SDS011;2530;47.990;7.866;2022-11-03T09:34:31;2.88;;;2.42;;
5022;SDS011;2530;47.990;7.866;2022-11-03T09:36:57;2.60;;;2.40;;
5022;SDS011;2530;47.990;7.866;2022-11-03T09:39:22;33.35;;;22.88;;
5022;SDS011;2530;47.990;7.866;2022-11-03T09:41:48;3.63;;;3.22;;
5022;SDS011;2530;47.990;7.866;2022-11-03T09:44:15;4.88;;;3.33;;
5022;SDS011;2530;47.990;7.866;2022-11-03T09:46:41;3.50;;;2.60;;
5022;SDS011;2530;47.990;7.866;2022-11-03T09:49:07;3.10;;;2.40;;
5022;SDS011;2530;47.990;7.866;2022-11-03T09:51:35;4.50;;;2.60;;
5022;SDS011;2530;47.990;7.866;2022-11-03T09:54:01;3.50;;;2.40;;
5022;SDS011;2530;47.990;7.866;2022-11-03T09:56:28;3.78;;;2.50;;
5022;SDS011;2530;47.990;7.866;2022-11-03T09:58:55;3.75;;;2.47;;
5022;SDS011;2530;47.990;7.866;2022-11-03T10:01:20;3.45;;;2.13;;
5022;SDS011;2530;47.990;7.866;2022-11-03T10:03:47;4.73;;;2.40;;
5022;SDS011;2530;47.990;7.866;2022-11-03T10:06:12;5.90;;;3.50;;
5022;SDS011;2530;47.990;7.866;2022-11-03T10:08:40;3.63;;;3.20;;
5022;SDS011;2530;47.990;7.866;2022-11-03T10:11:09;5.18;;;3.25;;
5022;SDS011;2530;47.990;7.866;2022-11-03T10:13:36;4.63;;;3.10;;
5022;SDS011;2530;47.990;7.866;2022-11-03T10:16:05;6.38;;;3.00;;
5022;SDS011;2530;47.990;7.866;2022-11-03T10:18:32;3.53;;;2.70;;
5022;SDS011;2530;47.990;7.866;2022-11-03T10:21:02;3.20;;;2.40;;
5022;SDS011;2530;47.990;7.866;2022-11-03T10:23:30;3.97;;;2.28;;
5022;SDS011;2530;47.990;7.866;2022-11-03T10:25:59;2.53;;;2.33;;
5022;SDS011;2530;47.990;7.866;2022-11-03T10:28:33;4.27;;;2.90;;
5022;SDS011;2530;47.990;7.866;2022-11-03T10:31:00;2.90;;;2.50;;
5022;SDS011;2530;47.990;7.866;2022-11-03T10:33:33;4.85;;;2.63;;
5022;SDS011;2530;47.990;7.866;2022-11-03T10:36:04;2.50;;;2.23;;
5022;SDS011;2530;47.990;7.866;2022-11-03T10:38:39;2.20;;;2.00;;
5022;SDS011;2530;47.990;7.866;2022-11-03T10:46:35;2.43;;;2.07;;
5022;SDS011;2530;47.990;7.866;2022-11-03T10:49:12;3.22;;;2.30;;
5022;SDS011;2530;47.990;7.866;2022-11-03T10:51:43;2.38;;;2.17;;
5022;SDS011;2530;47.990;7.866;2022-11-03T10:54:12;3.72;;;2.40;;
5022;SDS011;2530;47.990;7.866;2022-11-03T10:56:41;4.00;;;2.20;;
5022;SDS011;2530;47.990;7.866;2022-11-03T10:59:09;4.10;;;2.20;;
5022;SDS011;2530;47.990;7.866;2022-11-03T11:01:40;4.18;;;2.28;;
5022;SDS011;2530;47.990;7.866;2022-11-03T11:04:06;2.83;;;2.30;;
5022;SDS011;2530;47.990;7.866;2022-11-03T11:06:32;3.22;;;2.47;;
5022;SDS011;2530;47.990;7.866;2022-11-03T11:09:01;3.08;;;2.22;;
5022;SDS011;2530;47.990;7.866;2022-11-03T11:11:28;5.43;;;2.20;;
5022;SDS011;2530;47.990;7.866;2022-11-03T11:16:49;5.80;;;3.70;;
5022;SDS011;2530;47.990;7.866;2022-11-03T11:19:23;7.25;;;3.60;;
5022;SDS011;2530;47.990;7.866;2022-11-03T11:29:56;7.07;;;4.85;;
5022;SDS011;2530;47.990;7.866;2022-11-03T11:35:05;6.40;;;4.60;;
5022;SDS011;2530;47.990;7.866;2022-11-03T11:37:32;8.27;;;5.38;;
5022;SDS011;2530;47.990;7.866;2022-11-03T11:39:59;9.95;;;5.82;;
5022;SDS011;2530;47.990;7.866;2022-11-03T11:42:25;6.93;;;5.82;;
5022;SDS011;2530;47.990;7.866;2022-11-03T11:52:35;6.57;;;5.50;;
5022;SDS011;2530;47.990;7.866;2022-11-03T11:55:15;9.32;;;5.63;;
5022;SDS011;2530;47.990;7.866;2022-11-03T11:57:49;9.23;;;6.20;;
5022;SDS011;2530;47.990;7.866;2022-11-03T12:00:34;10.90;;;6.13;;
5022;SDS011;2530;47.990;7.866;2022-11-03T12:03:00;12.13;;;7.40;;
5022;SDS011;2530;47.990;7.866;2022-11-03T12:05:29;10.90;;;7.35;;
5022;SDS011;2530;47.990;7.866;2022-11-03T12:07:56;12.35;;;6.63;;
5022;SDS011;2530;47.990;7.866;2022-11-03T12:10:24;10.85;;;6.70;;
5022;SDS011;2530;47.990;7.866;2022-11-03T12:12:55;11.85;;;6.82;;
5022;SDS011;2530;47.990;7.866;2022-11-03T12:20:58;10.63;;;6.85;;
5022;SDS011;2530;47.990;7.866;2022-11-03T12:23:39;8.02;;;5.13;;
5022;SDS011;2530;47.990;7.866;2022-11-03T12:26:13;7.32;;;5.05;;
5022;SDS011;2530;47.990;7.866;2022-11-03T12:28:40;10.15;;;5.45;;
5022;SDS011;2530;47.990;7.866;2022-11-03T12:31:05;6.57;;;4.25;;
5022;SDS011;2530;47.990;7.866;2022-11-03T12:33:31;6.53;;;4.63;;
5022;SDS011;2530;47.990;7.866;2022-11-03T12:35:56;7.47;;;4.57;;
5022;SDS011;2530;47.990;7.866;2022-11-03T12:38:22;7.10;;;4.03;;
5022;SDS011;2530;47.990;7.866;2022-11-03T12:40:48;7.90;;;4.70;;
5022;SDS011;2530;47.990;7.866;2022-11-03T12:43:14;10.65;;;6.63;;
5022;SDS011;2530;47.990;7.866;2022-11-03T12:45:40;11.23;;;6.93;;
5022;SDS011;2530;47.990;7.866;2022-11-03T12:48:06;10.50;;;6.88;;
5022;SDS011;2530;47.990;7.866;2022-11-03T12:50:32;8.68;;;6.45;;
5022;SDS011;2530;47.990;7.866;2022-11-03T12:52:57;9.05;;;6.65;;
5022;SDS011;2530;47.990;7.866;2022-11-03T12:55:23;8.48;;;6.32;;
5022;SDS011;2530;47.990;7.866;2022-11-03T12:57:48;10.40;;;7.00;;
5022;SDS011;2530;47.990;7.866;2022-11-03T13:00:14;9.90;;;6.10;;
5022;SDS011;2530;47.990;7.866;2022-11-03T13:02:40;10.30;;;7.10;;
5022;SDS011;2530;47.990;7.866;2022-11-03T13:05:06;11.52;;;7.40;;
5022;SDS011;2530;47.990;7.866;2022-11-03T13:07:31;13.05;;;8.20;;
5022;SDS011;2530;47.990;7.866;2022-11-03T13:09:57;8.70;;;6.60;;
5022;SDS011;2530;47.990;7.866;2022-11-03T13:12:23;12.68;;;7.32;;
5022;SDS011;2530;47.990;7.866;2022-11-03T13:14:59;10.88;;;6.88;;
5022;SDS011;2530;47.990;7.866;2022-11-03T13:17:27;9.30;;;7.10;;
5022;SDS011;2530;47.990;7.866;2022-11-03T13:19:52;10.80;;;5.75;;
5022;SDS011;2530;47.990;7.866;2022-11-03T13:22:18;10.43;;;6.10;;
5022;SDS011;2530;47.990;7.866;2022-11-03T13:24:44;9.02;;;5.65;;
5022;SDS011;2530;47.990;7.866;2022-11-03T13:27:10;6.13;;;5.20;;
5022;SDS011;2530;47.990;7.866;2022-11-03T13:29:35;8.57;;;4.80;;
5022;SDS011;2530;47.990;7.866;2022-11-03T13:32:01;7.97;;;5.07;;
5022;SDS011;2530;47.990;7.866;2022-11-03T13:34:28;8.50;;;5.30;;
5022;SDS011;2530;47.990;7.866;2022-11-03T13:36:54;7.50;;;4.50;;
5022;SDS011;2530;47.990;7.866;2022-11-03T13:39:19;6.28;;;4.10;;
5022;SDS011;2530;47.990;7.866;2022-11-03T13:41:45;5.40;;;4.10;;
5022;SDS011;2530;47.990;7.866;2022-11-03T13:44:11;4.60;;;3.50;;
5022;SDS011;2530;47.990;7.866;2022-11-03T13:46:36;3.63;;;3.30;;
5022;SDS011;2530;47.990;7.866;2022-11-03T13:49:02;3.05;;;2.75;;
5022;SDS011;2530;47.990;7.866;2022-11-03T13:51:28;3.60;;;2.80;;
5022;SDS011;2530;47.990;7.866;2022-11-03T13:53:53;4.80;;;2.90;;
5022;SDS011;2530;47.990;7.866;2022-11-03T13:56:19;5.47;;;3.10;;
5022;SDS011;2530;47.990;7.866;2022-11-03T13:58:44;5.20;;;2.90;;
5022;SDS011;2530;47.990;7.866;2022-11-03T14:01:10;3.60;;;2.40;;
5022;SDS011;2530;47.990;7.866;2022-11-03T14:03:35;3.37;;;2.10;;
5022;SDS011;2530;47.990;7.866;2022-11-03T14:06:01;4.45;;;2.50;;
5022;SDS011;2530;47.990;7.866;2022-11-03T14:08:27;2.40;;;2.20;;
5022;SDS011;2530;47.990;7.866;2022-11-03T14:10:52;3.40;;;2.60;;
5022;SDS011;2530;47.990;7.866;2022-11-03T14:13:18;3.88;;;2.33;;
5022;SDS011;2530;47.990;7.866;2022-11-03T14:15:43;4.23;;;3.20;;
5022;SDS011;2530;47.990;7.866;2022-11-03T14:18:09;4.13;;;3.27;;
5022;SDS011;2530;47.990;7.866;2022-11-03T14:20:35;4.82;;;2.40;;
5022;SDS011;2530;47.990;7.866;2022-11-03T14:23:00;6.47;;;2.87;;
5022;SDS011;2530;47.990;7.866;2022-11-03T14:25:26;3.78;;;2.55;;
5022;SDS011;2530;47.990;7.866;2022-11-03T14:27:51;5.40;;;3.30;;
5022;SDS011;2530;47.990;7.866;2022-11-03T14:30:17;4.23;;;3.03;;
5022;SDS011;2530;47.990;7.866;2022-11-03T14:32:42;4.45;;;3.20;;
5022;SDS011;2530;47.990;7.866;2022-11-03T14:35:08;5.40;;;3.17;;
5022;SDS011;2530;47.990;7.866;2022-11-03T14:37:34;3.67;;;3.33;;
5022;SDS011;2530;47.990;7.866;2022-11-03T14:39:59;6.17;;;3.83;;
5022;SDS011;2530;47.990;7.866;2022-11-03T14:42:25;4.80;;;3.70;;
5022;SDS011;2530;47.990;7.866;2022-11-03T14:44:50;7.23;;;4.50;;
5022;SDS011;2530;47.990;7.866;2022-11-03T14:47:17;6.67;;;4.93;;
5022;SDS011;2530;47.990;7.866;2022-11-03T14:49:45;5.90;;;3.80;;
5022;SDS011;2530;47.990;7.866;2022-11-03T14:52:11;5.30;;;3.85;;
5022;SDS011;2530;47.990;7.866;2022-11-03T14:54:37;4.60;;;3.90;;
5022;SDS011;2530;47.990;7.866;2022-11-03T14:57:03;5.70;;;4.00;;
5022;SDS011;2530;47.990;7.866;2022-11-03T14:59:29;5.38;;;4.38;;
5022;SDS011;2530;47.990;7.866;2022-11-03T15:01:55;5.60;;;3.70;;
5022;SDS011;2530;47.990;7.866;2022-11-03T15:04:21;6.57;;;5.18;;
5022;SDS011;2530;47.990;7.866;2022-11-03T15:06:47;7.00;;;5.50;;
5022;SDS011;2530;47.990;7.866;2022-11-03T15:09:13;8.68;;;5.38;;
5022;SDS011;2530;47.990;7.866;2022-11-03T15:11:42;6.35;;;4.80;;
5022;SDS011;2530;47.990;7.866;2022-11-03T15:14:08;6.05;;;4.75;;
5022;SDS011;2530;47.990;7.866;2022-11-03T15:16:34;8.00;;;4.20;;
5022;SDS011;2530;47.990;7.866;2022-11-03T15:19:01;6.45;;;3.80;;
5022;SDS011;2530;47.990;7.866;2022-11-03T15:21:27;3.17;;;2.78;;
5022;SDS011;2530;47.990;7.866;2022-11-03T15:23:53;3.40;;;2.90;;
5022;SDS011;2530;47.990;7.866;2022-11-03T15:26:19;6.10;;;3.15;;
5022;SDS011;2530;47.990;7.866;2022-11-03T15:28:44;8.40;;;4.57;;
5022;SDS011;2530;47.990;7.866;2022-11-03T15:31:10;6.07;;;4.43;;
5022;SDS011;2530;47.990;7.866;2022-11-03T15:33:35;7.15;;;4.47;;
5022;SDS011;2530;47.990;7.866;2022-11-03T15:36:01;5.60;;;4.80;;
5022;SDS011;2530;47.990;7.866;2022-11-03T15:38:28;5.70;;;4.40;;
5022;SDS011;2530;47.990;7.866;2022-11-03T15:40:54;7.68;;;4.57;;
5022;SDS011;2530;47.990;7.866;2022-11-03T15:43:39;6.25;;;3.88;;
5022;SDS011;2530;47.990;7.866;2022-11-03T15:46:08;6.38;;;4.07;;
5022;SDS011;2530;47.990;7.866;2022-11-03T15:48:35;6.88;;;5.10;;
5022;SDS011;2530;47.990;7.866;2022-11-03T15:51:01;6.38;;;4.43;;
5022;SDS011;2530;47.990;7.866;2022-11-03T15:53:26;7.18;;;4.65;;
5022;SDS011;2530;47.990;7.866;2022-11-03T15:55:52;8.82;;;6.00;;
5022;SDS011;2530;47.990;7.866;2022-11-03T15:58:17;8.03;;;5.40;;
5022;SDS011;2530;47.990;7.866;2022-11-03T16:00:43;8.30;;;6.57;;
5022;SDS011;2530;47.990;7.866;2022-11-03T16:03:08;7.95;;;6.40;;
5022;SDS011;2530;47.990;7.866;2022-11-03T16:05:34;9.13;;;6.60;;
5022;SDS011;2530;47.990;7.866;2022-11-03T16:07:59;9.95;;;6.32;;
5022;SDS011;2530;47.990;7.866;2022-11-03T16:10:25;7.97;;;5.87;;
5022;SDS011;2530;47.990;7.866;2022-11-03T16:12:50;11.97;;;6.60;;
5022;SDS011;2530;47.990;7.866;2022-11-03T16:15:16;9.70;;;6.90;;
5022;SDS011;2530;47.990;7.866;2022-11-03T16:17:41;10.13;;;6.65;;
5022;SDS011;2530;47.990;7.866;2022-11-03T16:20:08;8.37;;;6.50;;